FDX375 PANC-SKBO
Flight info
| Callsign | FDX375 |
|---|---|
| Flight time | N/A |
| Altitude | 31000 |
| Route | FFITZ4 FFITZ J111 TED J501 JOH Q801 EEVER J501 MOCKA Q801 YZP J523 YZT Q902 ARRUE/N0503F330 Q902 SEA J20 PIH J163 OCS J20 FQF J52 QUAIL J20 HGO J52 LAA J168 SPS J58 ADUKE/N0501F350 J58 HRV L333 PISAD UL333 ILUBA UN420 SPP UP530 RNG UQ121 ISVAT ISVAT5E |
| Aircraft | B748/H-SDE3FGHIM1M2RWXY/LB1 |
Departure
| Time | 2026-05-08 01:27 |
|---|---|
| Airport | Ted Stevens Anchorage International Airport (PANC) |
Arrival
| Time | N/A |
|---|---|
| Airport | El Dorado International Airport (SKBO) |
| Time | Latitude | Longitude | Altitude | Speed | Heading |
|---|---|---|---|---|---|
| 2026-05-08 00:38 | 61.19152 | -149.99641 | 166 ft | 0 kts | 164° |
| 2026-05-08 01:03 | 61.19159 | -149.99646 | 166 ft | 1 kts | 163° |
| 2026-05-08 01:04 | 61.19172 | -149.99655 | 166 ft | 1 kts | 161° |
| 2026-05-08 01:04 | 61.19183 | -149.99664 | 166 ft | 1 kts | 159° |
| 2026-05-08 01:04 | 61.19195 | -149.99674 | 165 ft | 1 kts | 157° |
| 2026-05-08 01:04 | 61.19207 | -149.99684 | 166 ft | 1 kts | 155° |
| 2026-05-08 01:05 | 61.19218 | -149.99695 | 166 ft | 1 kts | 153° |
| 2026-05-08 01:05 | 61.19230 | -149.99709 | 166 ft | 1 kts | 151° |
| 2026-05-08 01:05 | 61.19241 | -149.99721 | 166 ft | 1 kts | 149° |
| 2026-05-08 01:05 | 61.19242 | -149.99722 | 166 ft | 0 kts | 148° |
| 2026-05-08 01:07 | 61.19244 | -149.99725 | 166 ft | 1 kts | 148° |
| 2026-05-08 01:08 | 61.19255 | -149.99734 | 166 ft | 1 kts | 169° |
| 2026-05-08 01:08 | 61.19242 | -149.99736 | 166 ft | 1 kts | 205° |
| 2026-05-08 01:08 | 61.19232 | -149.99754 | 166 ft | 1 kts | 233° |
| 2026-05-08 01:09 | 61.19224 | -149.99779 | 166 ft | 1 kts | 244° |
| 2026-05-08 01:09 | 61.19220 | -149.99803 | 166 ft | 1 kts | 253° |
| 2026-05-08 01:09 | 61.19220 | -149.99806 | 166 ft | 0 kts | 253° |
| 2026-05-08 01:12 | 61.19218 | -149.99817 | 166 ft | 1 kts | 253° |
| 2026-05-08 01:12 | 61.19212 | -149.99857 | 166 ft | 4 kts | 253° |
| 2026-05-08 01:12 | 61.19203 | -149.99925 | 166 ft | 5 kts | 255° |
| 2026-05-08 01:13 | 61.19197 | -149.99970 | 166 ft | 6 kts | 255° |
| 2026-05-08 01:13 | 61.19184 | -150.00078 | 166 ft | 8 kts | 255° |
| 2026-05-08 01:13 | 61.19167 | -150.00205 | 166 ft | 9 kts | 255° |
| 2026-05-08 01:13 | 61.19151 | -150.00331 | 166 ft | 9 kts | 255° |
| 2026-05-08 01:14 | 61.19134 | -150.00458 | 166 ft | 9 kts | 255° |
| 2026-05-08 01:14 | 61.19115 | -150.00580 | 166 ft | 8 kts | 233° |
| 2026-05-08 01:14 | 61.19067 | -150.00610 | 166 ft | 7 kts | 161° |
| 2026-05-08 01:14 | 61.19013 | -150.00572 | 166 ft | 9 kts | 162° |
| 2026-05-08 01:15 | 61.18945 | -150.00531 | 166 ft | 11 kts | 165° |
| 2026-05-08 01:15 | 61.18861 | -150.00484 | 166 ft | 13 kts | 165° |
| 2026-05-08 01:15 | 61.18764 | -150.00427 | 166 ft | 15 kts | 165° |
| 2026-05-08 01:15 | 61.18650 | -150.00363 | 166 ft | 18 kts | 165° |
| 2026-05-08 01:16 | 61.18522 | -150.00290 | 166 ft | 19 kts | 164° |
| 2026-05-08 01:16 | 61.18391 | -150.00214 | 166 ft | 19 kts | 164° |
| 2026-05-08 01:16 | 61.18259 | -150.00136 | 166 ft | 20 kts | 164° |
| 2026-05-08 01:16 | 61.18123 | -150.00060 | 166 ft | 20 kts | 165° |
| 2026-05-08 01:17 | 61.17987 | -149.99980 | 166 ft | 20 kts | 164° |
| 2026-05-08 01:17 | 61.17849 | -149.99899 | 166 ft | 20 kts | 165° |
| 2026-05-08 01:17 | 61.17710 | -149.99820 | 166 ft | 20 kts | 164° |
| 2026-05-08 01:17 | 61.17570 | -149.99739 | 166 ft | 21 kts | 164° |
| 2026-05-08 01:18 | 61.17428 | -149.99658 | 166 ft | 21 kts | 166° |
| 2026-05-08 01:18 | 61.17287 | -149.99583 | 166 ft | 21 kts | 165° |
| 2026-05-08 01:18 | 61.17164 | -149.99512 | 166 ft | 17 kts | 155° |
| 2026-05-08 01:18 | 61.17121 | -149.99321 | 166 ft | 15 kts | 83° |
| 2026-05-08 01:19 | 61.17125 | -149.99106 | 166 ft | 14 kts | 90° |
| 2026-05-08 01:19 | 61.17124 | -149.98892 | 166 ft | 15 kts | 90° |
| 2026-05-08 01:19 | 61.17122 | -149.98674 | 166 ft | 15 kts | 91° |
| 2026-05-08 01:19 | 61.17121 | -149.98454 | 166 ft | 15 kts | 91° |
| 2026-05-08 01:20 | 61.17119 | -149.98227 | 166 ft | 15 kts | 91° |
| 2026-05-08 01:20 | 61.17120 | -149.97998 | 165 ft | 16 kts | 90° |
| 2026-05-08 01:20 | 61.17120 | -149.97763 | 165 ft | 16 kts | 90° |
| 2026-05-08 01:20 | 61.17119 | -149.97527 | 166 ft | 16 kts | 90° |
| 2026-05-08 01:21 | 61.17122 | -149.97288 | 166 ft | 16 kts | 87° |
| 2026-05-08 01:21 | 61.17126 | -149.97043 | 165 ft | 17 kts | 88° |
| 2026-05-08 01:21 | 61.17129 | -149.96796 | 165 ft | 17 kts | 90° |
| 2026-05-08 01:21 | 61.17128 | -149.96549 | 165 ft | 17 kts | 91° |
| 2026-05-08 01:22 | 61.17126 | -149.96298 | 165 ft | 17 kts | 91° |
| 2026-05-08 01:22 | 61.17125 | -149.96045 | 165 ft | 17 kts | 89° |
| 2026-05-08 01:22 | 61.17126 | -149.95789 | 165 ft | 17 kts | 90° |
| 2026-05-08 01:22 | 61.17126 | -149.95537 | 165 ft | 17 kts | 90° |
| 2026-05-08 01:23 | 61.17125 | -149.95274 | 165 ft | 18 kts | 90° |
| 2026-05-08 01:23 | 61.17124 | -149.95052 | 165 ft | 11 kts | 90° |
| 2026-05-08 01:23 | 61.17122 | -149.94905 | 165 ft | 9 kts | 95° |
| 2026-05-08 01:23 | 61.17095 | -149.94852 | 165 ft | 1 kts | 184° |
| 2026-05-08 01:24 | 61.17079 | -149.94855 | 165 ft | 2 kts | 184° |
| 2026-05-08 01:24 | 61.17056 | -149.94858 | 165 ft | 3 kts | 184° |
| 2026-05-08 01:24 | 61.17026 | -149.94862 | 165 ft | 4 kts | 184° |
| 2026-05-08 01:24 | 61.16994 | -149.94881 | 165 ft | 4 kts | 219° |
| 2026-05-08 01:25 | 61.16982 | -149.94936 | 165 ft | 0 kts | 268° |
| 2026-05-08 01:25 | 61.16982 | -149.94939 | 165 ft | 0 kts | 268° |
| 2026-05-08 01:25 | 61.16980 | -149.95122 | 165 ft | 41 kts | 270° |
| 2026-05-08 01:26 | 61.16981 | -149.96161 | 166 ft | 102 kts | 270° |
| 2026-05-08 01:26 | 61.16978 | -149.98001 | 166 ft | 150 kts | 270° |
| 2026-05-08 01:26 | 61.16973 | -150.00429 | 175 ft | 187 kts | 271° |
| 2026-05-08 01:26 | 61.16961 | -150.03134 | 546 ft | 188 kts | 270° |
| 2026-05-08 01:27 | 61.16918 | -150.05868 | 993 ft | 190 kts | 268° |
| 2026-05-08 01:27 | 61.16859 | -150.08577 | 1224 ft | 189 kts | 266° |
| 2026-05-08 01:27 | 61.16840 | -150.11296 | 1320 ft | 188 kts | 269° |
| 2026-05-08 01:27 | 61.16821 | -150.14000 | 1433 ft | 186 kts | 268° |
| 2026-05-08 01:28 | 61.16805 | -150.16695 | 1486 ft | 188 kts | 268° |
| 2026-05-08 01:28 | 61.16784 | -150.19414 | 1545 ft | 189 kts | 268° |
| 2026-05-08 01:28 | 61.16768 | -150.22118 | 1608 ft | 190 kts | 268° |
| 2026-05-08 01:28 | 61.16749 | -150.24863 | 1637 ft | 190 kts | 267° |
| 2026-05-08 01:29 | 61.16730 | -150.27637 | 1770 ft | 196 kts | 268° |
| 2026-05-08 01:29 | 61.16710 | -150.30482 | 1943 ft | 200 kts | 267° |
| 2026-05-08 01:29 | 61.16690 | -150.33400 | 2095 ft | 205 kts | 267° |
| 2026-05-08 01:29 | 61.16669 | -150.36412 | 2151 ft | 219 kts | 267° |
| 2026-05-08 01:30 | 61.16645 | -150.39685 | 2335 ft | 228 kts | 267° |
| 2026-05-08 01:30 | 61.16622 | -150.43021 | 2517 ft | 241 kts | 267° |
| 2026-05-08 01:30 | 61.16618 | -150.46536 | 2829 ft | 248 kts | 274° |
| 2026-05-08 01:30 | 61.17142 | -150.50023 | 3071 ft | 261 kts | 293° |
| 2026-05-08 01:31 | 61.17891 | -150.53474 | 3469 ft | 268 kts | 291° |
| 2026-05-08 01:31 | 61.18612 | -150.57013 | 4132 ft | 266 kts | 290° |
| 2026-05-08 01:31 | 61.19337 | -150.60609 | 4543 ft | 274 kts | 291° |
| 2026-05-08 01:31 | 61.20069 | -150.64230 | 5157 ft | 274 kts | 290° |
| 2026-05-08 01:32 | 61.20797 | -150.67844 | 5677 ft | 276 kts | 289° |
| 2026-05-08 01:32 | 61.21546 | -150.71565 | 6189 ft | 280 kts | 290° |
| 2026-05-08 01:32 | 61.22289 | -150.75266 | 6679 ft | 282 kts | 289° |
| 2026-05-08 01:32 | 61.23271 | -150.78815 | 7119 ft | 288 kts | 304° |
| 2026-05-08 01:33 | 61.24484 | -150.82170 | 7684 ft | 288 kts | 303° |
| 2026-05-08 01:33 | 61.25657 | -150.85536 | 8167 ft | 291 kts | 303° |
| 2026-05-08 01:33 | 61.26824 | -150.88915 | 8671 ft | 292 kts | 303° |
| 2026-05-08 01:33 | 61.28017 | -150.92364 | 9139 ft | 294 kts | 302° |
| 2026-05-08 01:34 | 61.29208 | -150.95815 | 9621 ft | 296 kts | 302° |
| 2026-05-08 01:34 | 61.30392 | -150.99251 | 10118 ft | 298 kts | 302° |
| 2026-05-08 01:34 | 61.31611 | -151.02799 | 10438 ft | 305 kts | 302° |
| 2026-05-08 01:34 | 61.32898 | -151.06375 | 10673 ft | 315 kts | 313° |
| 2026-05-08 01:35 | 61.34759 | -151.08910 | 10940 ft | 327 kts | 339° |
| 2026-05-08 01:35 | 61.37016 | -151.09778 | 11212 ft | 336 kts | 2° |
| 2026-05-08 01:35 | 61.39295 | -151.08809 | 11470 ft | 343 kts | 25° |
| 2026-05-08 01:35 | 61.41301 | -151.06071 | 11732 ft | 348 kts | 47° |
| 2026-05-08 01:36 | 61.42704 | -151.01916 | 11987 ft | 350 kts | 70° |
| 2026-05-08 01:36 | 61.43277 | -150.97038 | 12228 ft | 351 kts | 91° |
| 2026-05-08 01:36 | 61.42997 | -150.92038 | 12486 ft | 352 kts | 109° |
| 2026-05-08 01:36 | 61.42016 | -150.87305 | 12716 ft | 356 kts | 124° |
| 2026-05-08 01:37 | 61.40677 | -150.82899 | 12964 ft | 364 kts | 126° |
| 2026-05-08 01:37 | 61.39291 | -150.78448 | 13170 ft | 374 kts | 126° |
| 2026-05-08 01:37 | 61.37901 | -150.73810 | 13378 ft | 384 kts | 123° |
| 2026-05-08 01:37 | 61.36509 | -150.68962 | 13603 ft | 394 kts | 124° |
| 2026-05-08 01:38 | 61.35038 | -150.64119 | 13815 ft | 403 kts | 125° |
| 2026-05-08 01:38 | 61.33580 | -150.59068 | 14063 ft | 412 kts | 121° |
| 2026-05-08 01:38 | 61.32196 | -150.53839 | 14425 ft | 417 kts | 121° |
| 2026-05-08 01:38 | 61.30783 | -150.48467 | 14749 ft | 421 kts | 121° |
| 2026-05-08 01:39 | 61.29388 | -150.43131 | 15195 ft | 423 kts | 121° |
| 2026-05-08 01:39 | 61.27982 | -150.37823 | 15592 ft | 426 kts | 121° |
| 2026-05-08 01:39 | 61.26548 | -150.32410 | 15998 ft | 429 kts | 122° |
| 2026-05-08 01:39 | 61.25106 | -150.27004 | 16391 ft | 432 kts | 122° |
| 2026-05-08 01:40 | 61.23649 | -150.21541 | 16724 ft | 437 kts | 122° |
| 2026-05-08 01:40 | 61.22157 | -150.15974 | 17130 ft | 439 kts | 122° |
| 2026-05-08 01:40 | 61.20663 | -150.10403 | 17494 ft | 442 kts | 122° |
| 2026-05-08 01:40 | 61.19176 | -150.04881 | 17903 ft | 444 kts | 123° |
| 2026-05-08 01:41 | 61.17659 | -149.99249 | 18221 ft | 448 kts | 123° |
| 2026-05-08 01:41 | 61.16221 | -149.93477 | 18540 ft | 454 kts | 116° |
| 2026-05-08 01:41 | 61.15062 | -149.87480 | 18878 ft | 457 kts | 115° |
| 2026-05-08 01:41 | 61.13909 | -149.81273 | 19189 ft | 461 kts | 114° |
| 2026-05-08 01:42 | 61.12787 | -149.75089 | 19536 ft | 464 kts | 114° |
| 2026-05-08 01:42 | 61.11608 | -149.68846 | 19862 ft | 466 kts | 115° |
| 2026-05-08 01:42 | 61.10439 | -149.62650 | 20182 ft | 469 kts | 115° |
| 2026-05-08 01:42 | 61.09240 | -149.56383 | 20454 ft | 473 kts | 115° |
| 2026-05-08 01:43 | 61.08021 | -149.50009 | 20779 ft | 475 kts | 115° |
| 2026-05-08 01:43 | 61.06811 | -149.43721 | 21046 ft | 479 kts | 115° |
| 2026-05-08 01:43 | 61.05584 | -149.37357 | 21399 ft | 480 kts | 115° |
| 2026-05-08 01:43 | 61.04332 | -149.30890 | 21675 ft | 484 kts | 116° |
| 2026-05-08 01:44 | 61.03084 | -149.24466 | 22008 ft | 486 kts | 116° |
| 2026-05-08 01:44 | 61.01834 | -149.18050 | 22304 ft | 488 kts | 116° |
| 2026-05-08 01:44 | 61.00562 | -149.11548 | 22578 ft | 491 kts | 116° |
| 2026-05-08 01:44 | 60.99285 | -149.05040 | 22864 ft | 493 kts | 116° |
| 2026-05-08 01:45 | 60.97995 | -148.98491 | 23111 ft | 496 kts | 116° |
| 2026-05-08 01:45 | 60.96701 | -148.91931 | 23428 ft | 497 kts | 116° |
| 2026-05-08 01:45 | 60.95390 | -148.85319 | 23637 ft | 500 kts | 117° |
| 2026-05-08 01:45 | 60.94080 | -148.78729 | 23941 ft | 501 kts | 117° |
| 2026-05-08 01:46 | 60.92759 | -148.72107 | 24154 ft | 504 kts | 116° |
| 2026-05-08 01:46 | 60.91427 | -148.65456 | 24401 ft | 506 kts | 117° |
| 2026-05-08 01:46 | 60.90091 | -148.58803 | 24704 ft | 507 kts | 117° |
| 2026-05-08 01:46 | 60.88746 | -148.52125 | 24955 ft | 509 kts | 117° |
| 2026-05-08 01:47 | 60.87384 | -148.45395 | 25239 ft | 510 kts | 116° |
| 2026-05-08 01:47 | 60.86039 | -148.38760 | 25479 ft | 513 kts | 116° |
| 2026-05-08 01:47 | 60.84656 | -148.31966 | 25752 ft | 514 kts | 117° |
| 2026-05-08 01:48 | 60.81902 | -148.18494 | 26274 ft | 516 kts | 117° |
| 2026-05-08 01:48 | 60.80504 | -148.11684 | 26510 ft | 519 kts | 117° |
| 2026-05-08 01:48 | 60.79117 | -148.04970 | 26679 ft | 522 kts | 117° |
| 2026-05-08 01:48 | 60.77690 | -147.98077 | 26909 ft | 524 kts | 117° |
| 2026-05-08 01:49 | 60.76267 | -147.91222 | 27159 ft | 525 kts | 117° |
| 2026-05-08 01:49 | 60.74851 | -147.84424 | 27432 ft | 526 kts | 117° |
| 2026-05-08 01:49 | 60.73407 | -147.77508 | 27693 ft | 527 kts | 117° |
| 2026-05-08 01:49 | 60.71976 | -147.70680 | 28042 ft | 526 kts | 117° |
| 2026-05-08 01:50 | 60.70552 | -147.63908 | 28331 ft | 526 kts | 117° |
| 2026-05-08 01:50 | 60.69097 | -147.57010 | 28674 ft | 525 kts | 118° |
| 2026-05-08 01:50 | 60.67661 | -147.50229 | 29019 ft | 524 kts | 117° |
| 2026-05-08 01:50 | 60.66220 | -147.43440 | 29349 ft | 523 kts | 118° |
| 2026-05-08 01:51 | 60.64780 | -147.36685 | 29627 ft | 523 kts | 118° |
| 2026-05-08 01:51 | 60.63341 | -147.29956 | 29996 ft | 521 kts | 119° |
| 2026-05-08 01:51 | 60.61883 | -147.23154 | 30316 ft | 520 kts | 119° |
| 2026-05-08 01:51 | 60.60454 | -147.16518 | 30557 ft | 521 kts | 119° |
| 2026-05-08 01:52 | 60.59003 | -147.09796 | 30809 ft | 520 kts | 119° |
| 2026-05-08 01:52 | 60.57547 | -147.03075 | 31066 ft | 520 kts | 119° |
| 2026-05-08 01:52 | 60.56097 | -146.96403 | 31245 ft | 520 kts | 119° |
| 2026-05-08 01:52 | 60.54628 | -146.89667 | 31454 ft | 519 kts | 119° |
| 2026-05-08 01:53 | 60.53182 | -146.83054 | 31603 ft | 519 kts | 119° |
| 2026-05-08 01:53 | 60.51712 | -146.76352 | 31738 ft | 520 kts | 120° |
| 2026-05-08 01:53 | 60.50239 | -146.69661 | 31931 ft | 519 kts | 119° |
| 2026-05-08 01:53 | 60.48769 | -146.62994 | 32092 ft | 519 kts | 119° |
| 2026-05-08 01:54 | 60.47280 | -146.56349 | 32214 ft | 519 kts | 121° |
| 2026-05-08 01:54 | 60.45719 | -146.49832 | 32339 ft | 519 kts | 122° |
| 2026-05-08 01:54 | 60.44138 | -146.43349 | 32450 ft | 519 kts | 122° |
| 2026-05-08 01:54 | 60.42538 | -146.36838 | 32598 ft | 519 kts | 122° |
| 2026-05-08 01:55 | 60.40937 | -146.30328 | 32763 ft | 518 kts | 123° |
| 2026-05-08 01:55 | 60.39333 | -146.23816 | 32897 ft | 518 kts | 123° |
| 2026-05-08 01:55 | 60.37733 | -146.17326 | 33063 ft | 517 kts | 123° |
| 2026-05-08 01:55 | 60.36124 | -146.10823 | 33115 ft | 520 kts | 123° |
| 2026-05-08 01:56 | 60.32889 | -145.97777 | 33123 ft | 518 kts | 122° |
| 2026-05-08 01:56 | 60.29682 | -145.84904 | 33125 ft | 516 kts | 123° |
| 2026-05-08 01:57 | 60.26451 | -145.72015 | 33120 ft | 519 kts | 123° |
| 2026-05-08 01:57 | 60.23193 | -145.59087 | 33129 ft | 518 kts | 123° |
| 2026-05-08 01:58 | 60.19936 | -145.46230 | 33127 ft | 519 kts | 123° |
| 2026-05-08 01:58 | 60.16653 | -145.33347 | 33119 ft | 520 kts | 124° |
| 2026-05-08 01:59 | 60.13367 | -145.20526 | 33109 ft | 519 kts | 124° |
| 2026-05-08 01:59 | 60.10066 | -145.07712 | 33106 ft | 520 kts | 124° |
| 2026-05-08 02:00 | 60.06724 | -144.94823 | 33108 ft | 521 kts | 124° |
| 2026-05-08 02:00 | 60.03389 | -144.82030 | 33107 ft | 521 kts | 125° |
| 2026-05-08 02:01 | 60.00037 | -144.69246 | 33115 ft | 524 kts | 125° |
| 2026-05-08 02:01 | 59.96655 | -144.56416 | 33115 ft | 524 kts | 125° |
| 2026-05-08 02:02 | 59.93271 | -144.43649 | 33105 ft | 524 kts | 125° |
| 2026-05-08 02:02 | 59.89846 | -144.30803 | 33102 ft | 523 kts | 126° |
| 2026-05-08 02:03 | 59.86443 | -144.18120 | 33102 ft | 525 kts | 126° |
| 2026-05-08 02:03 | 59.83002 | -144.05357 | 33114 ft | 524 kts | 126° |
| 2026-05-08 02:04 | 59.79565 | -143.92685 | 33122 ft | 525 kts | 126° |
| 2026-05-08 02:04 | 59.76105 | -143.80003 | 33113 ft | 524 kts | 126° |
| 2026-05-08 02:05 | 59.72648 | -143.67384 | 33105 ft | 524 kts | 126° |
| 2026-05-08 02:05 | 59.69160 | -143.54735 | 33113 ft | 525 kts | 126° |
| 2026-05-08 02:06 | 59.65650 | -143.42042 | 33135 ft | 527 kts | 126° |
| 2026-05-08 02:06 | 59.62136 | -143.29396 | 33116 ft | 526 kts | 126° |
| 2026-05-08 02:07 | 59.58620 | -143.16808 | 33114 ft | 526 kts | 127° |
| 2026-05-08 02:07 | 59.55101 | -143.04263 | 33120 ft | 526 kts | 127° |
| 2026-05-08 02:08 | 59.51565 | -142.91734 | 33123 ft | 525 kts | 127° |
| 2026-05-08 02:08 | 59.48011 | -142.79198 | 33125 ft | 526 kts | 127° |
| 2026-05-08 02:09 | 59.44431 | -142.66658 | 33132 ft | 527 kts | 127° |
| 2026-05-08 02:09 | 59.40848 | -142.54163 | 33124 ft | 527 kts | 127° |
| 2026-05-08 02:10 | 59.37246 | -142.41682 | 33127 ft | 529 kts | 127° |
| 2026-05-08 02:10 | 59.33654 | -142.29274 | 33110 ft | 527 kts | 128° |
| 2026-05-08 02:11 | 59.30033 | -142.16850 | 33120 ft | 524 kts | 128° |
| 2026-05-08 02:11 | 59.26434 | -142.04579 | 33123 ft | 524 kts | 127° |
| 2026-05-08 02:12 | 59.22809 | -141.92265 | 33117 ft | 524 kts | 128° |
| 2026-05-08 02:12 | 59.19187 | -141.80034 | 33118 ft | 525 kts | 127° |
| 2026-05-08 02:13 | 59.15529 | -141.67743 | 33109 ft | 525 kts | 128° |
| 2026-05-08 02:13 | 59.11887 | -141.55576 | 33110 ft | 524 kts | 127° |
| 2026-05-08 02:14 | 59.08208 | -141.43353 | 33113 ft | 526 kts | 128° |
| 2026-05-08 02:14 | 59.04510 | -141.31117 | 33099 ft | 523 kts | 128° |
| 2026-05-08 02:15 | 59.00853 | -141.19069 | 33102 ft | 522 kts | 128° |
| 2026-05-08 02:15 | 58.97177 | -141.07042 | 33103 ft | 521 kts | 128° |
| 2026-05-08 02:16 | 58.93481 | -140.95009 | 33107 ft | 522 kts | 128° |
| 2026-05-08 02:16 | 58.89764 | -140.82960 | 33103 ft | 522 kts | 128° |
| 2026-05-08 02:17 | 58.86031 | -140.70931 | 33109 ft | 522 kts | 128° |
| 2026-05-08 02:17 | 58.82335 | -140.59045 | 33116 ft | 521 kts | 128° |
| 2026-05-08 02:18 | 58.78428 | -140.47418 | 33123 ft | 515 kts | 133° |
| 2026-05-08 02:18 | 58.74190 | -140.36328 | 33115 ft | 513 kts | 133° |
| 2026-05-08 02:19 | 58.69946 | -140.25359 | 33103 ft | 512 kts | 134° |
| 2026-05-08 02:19 | 58.65737 | -140.14439 | 33095 ft | 513 kts | 134° |
| 2026-05-08 02:20 | 58.61502 | -140.03514 | 33105 ft | 514 kts | 133° |
| 2026-05-08 02:20 | 58.57251 | -139.92581 | 33109 ft | 511 kts | 134° |
| 2026-05-08 02:21 | 58.53012 | -139.81715 | 33120 ft | 513 kts | 133° |
| 2026-05-08 02:21 | 58.48741 | -139.70824 | 33117 ft | 510 kts | 133° |
| 2026-05-08 02:22 | 58.44490 | -139.60017 | 33129 ft | 510 kts | 133° |
| 2026-05-08 02:22 | 58.40226 | -139.49236 | 33120 ft | 510 kts | 133° |
| 2026-05-08 02:23 | 58.35984 | -139.38551 | 33125 ft | 510 kts | 133° |
| 2026-05-08 02:23 | 58.31692 | -139.27789 | 33114 ft | 510 kts | 134° |
| 2026-05-08 02:24 | 58.27422 | -139.17128 | 33116 ft | 509 kts | 134° |
| 2026-05-08 02:24 | 58.23141 | -139.06496 | 33111 ft | 509 kts | 134° |
| 2026-05-08 02:25 | 58.18842 | -138.95856 | 33111 ft | 509 kts | 134° |
| 2026-05-08 02:25 | 58.14570 | -138.85333 | 33112 ft | 508 kts | 134° |
| 2026-05-08 02:26 | 58.10250 | -138.74742 | 33105 ft | 508 kts | 134° |
| 2026-05-08 02:26 | 58.05938 | -138.64215 | 33110 ft | 509 kts | 133° |
| 2026-05-08 02:27 | 58.01615 | -138.53706 | 33105 ft | 508 kts | 133° |
| 2026-05-08 02:27 | 57.97298 | -138.43256 | 33107 ft | 508 kts | 133° |
| 2026-05-08 02:28 | 57.92950 | -138.32782 | 33107 ft | 508 kts | 134° |
| 2026-05-08 02:28 | 57.88624 | -138.22400 | 33113 ft | 507 kts | 134° |
| 2026-05-08 02:29 | 57.84280 | -138.12018 | 33108 ft | 507 kts | 134° |
| 2026-05-08 02:29 | 57.79937 | -138.01688 | 33111 ft | 505 kts | 134° |
| 2026-05-08 02:30 | 57.75613 | -137.91441 | 33110 ft | 504 kts | 134° |
| 2026-05-08 02:30 | 57.71042 | -137.81636 | 33119 ft | 498 kts | 142° |
| 2026-05-08 02:31 | 57.65947 | -137.72965 | 33110 ft | 497 kts | 144° |
| 2026-05-08 02:31 | 57.60794 | -137.64473 | 33108 ft | 496 kts | 144° |